< < Back
Terminal Aerodrome Forecast


Current Version              Previous Versions:   1  2  3  4  5  6  7  8  9  

Terminal Aerodrome Forecast

721
FTUS44 KMRX 231720
TAFCHA
TAF
KCHA 231720Z 2318/2418 03006KT P6SM FEW050
     FM240100 00000KT P6SM SKC
     FM241500 03005KT P6SM FEW050=



Latest METAR

026
SAUS80 KWBC 232200 RRA
MTRCHA
METAR KCHA 232153Z 36008KT 10SM FEW055 FEW250 26/11 A3018 RMK AO2 SLP215
T02560111


USA.gov is the U.S. government's official web portal to all federal, state and local government web resources and services.